Time;durP1;ratioP1;P1;durP2;ratioP2;P2;SDS_P1;SDS_P2;PMS_P1;PMS_P2;Temp;Humidity;BMP_temperature;BMP_pressure;BME280_temperature;BME280_humidity;BME280_pressure;Samples;Min_cycle;Max_cycle;Signal;HPM_P1;HPM_P2
2022/12/22 03:27:16;;;;;;;35.47;13.27;;;8.40;99.90;;;;;;5033547;28;20096;-68
2022/12/22 03:29:42;;;;;;;35.13;13.55;;;8.40;99.90;;;;;;5040239;28;20084;-68
2022/12/22 03:32:08;;;;;;;30.23;12.45;;;8.40;99.90;;;;;;5030881;28;20128;-68
2022/12/22 03:34:33;;;;;;;35.65;13.63;;;8.40;99.90;;;;;;5032348;28;20471;-68
2022/12/22 03:36:59;;;;;;;32.10;13.05;;;8.40;99.90;;;;;;5030054;28;20045;-68
2022/12/22 03:39:25;;;;;;;34.25;13.52;;;8.40;99.90;;;;;;5031137;28;20038;-68
2022/12/22 03:47:19;;;;;;;36.58;11.95;;;8.40;99.90;;;;;;5050447;28;20060;-68
2022/12/22 03:49:45;;;;;;;32.92;13.07;;;8.50;99.90;;;;;;5052100;28;20049;-68
2022/12/22 03:52:10;;;;;;;34.80;13.25;;;8.40;99.90;;;;;;5050444;28;20092;-67
2022/12/22 03:54:36;;;;;;;34.55;12.57;;;8.40;99.90;;;;;;5032372;28;20057;-68
2022/12/22 03:57:02;;;;;;;30.05;13.00;;;8.40;99.90;;;;;;5031673;28;20083;-68
2022/12/22 03:59:27;;;;;;;33.38;13.70;;;8.40;99.90;;;;;;5050502;28;20049;-68
2022/12/22 04:01:54;;;;;;;31.33;13.48;;;8.30;99.90;;;;;;5050977;28;20045;-68
2022/12/22 04:04:22;;;;;;;36.13;13.60;;;8.40;99.90;;;;;;5050370;28;20053;-68
2022/12/22 04:06:48;;;;;;;31.65;12.48;;;8.40;99.90;;;;;;5050107;28;20047;-68
2022/12/22 04:09:14;;;;;;;;;;;8.30;99.90;;;;;;5050427;28;20048;-68
2022/12/22 04:14:24;;;;;;;38.35;13.55;;;8.40;99.90;;;;;;5030488;28;20112;-67
2022/12/22 04:16:50;;;;;;;39.17;13.15;;;8.40;99.90;;;;;;5030533;28;20049;-68
2022/12/22 04:19:15;;;;;;;36.75;13.57;;;8.40;99.90;;;;;;5030698;28;20045;-68
2022/12/22 04:21:42;;;;;;;34.60;13.13;;;8.40;99.90;;;;;;5029397;28;20092;-67
2022/12/22 04:24:08;;;;;;;38.17;13.80;;;8.40;99.90;;;;;;5029301;28;20091;-69
2022/12/22 04:26:34;;;;;;;33.40;14.23;;;8.40;99.90;;;;;;5030257;28;20053;-68
2022/12/22 04:29:00;;;;;;;36.13;12.93;;;8.40;99.90;;;;;;5037277;28;20045;-68
2022/12/22 04:31:25;;;;;;;31.30;12.98;;;8.40;99.90;;;;;;5049724;28;20502;-68
2022/12/22 04:33:51;;;;;;;32.42;12.10;;;8.40;99.90;;;;;;5038577;28;20439;-68
2022/12/22 04:36:17;;;;;;;38.33;14.45;;;8.40;99.90;;;;;;5049572;28;20052;-68
2022/12/22 04:38:43;;;;;;;32.35;12.25;;;8.40;99.90;;;;;;5035720;28;20438;-68
2022/12/22 04:41:09;;;;;;;30.00;11.70;;;8.40;99.90;;;;;;5035006;28;20505;-69
2022/12/22 04:43:35;;;;;;;34.45;11.85;;;8.40;99.90;;;;;;5030659;28;20042;-68
2022/12/22 04:46:00;;;;;;;32.53;12.73;;;8.50;99.90;;;;;;5030034;28;20514;-68
2022/12/22 04:48:27;;;;;;;33.40;12.00;;;8.40;99.90;;;;;;5029758;28;20085;-68
2022/12/22 04:50:56;;;;;;;28.80;11.27;;;8.40;99.90;;;;;;5037310;28;20068;-68
2022/12/22 04:53:22;;;;;;;36.15;12.38;;;8.50;99.90;;;;;;5047363;28;20048;-68
2022/12/22 04:55:52;;;;;;;30.55;12.68;;;8.50;99.90;;;;;;5035340;28;20064;-68
2022/12/22 04:58:18;;;;;;;32.67;12.82;;;8.50;99.90;;;;;;5049794;28;20044;-68
2022/12/22 05:00:43;;;;;;;32.72;12.32;;;8.50;99.90;;;;;;5049868;28;20087;-68
2022/12/22 05:03:09;;;;;;;30.05;12.13;;;8.40;99.90;;;;;;5042241;28;20073;-68
2022/12/22 05:05:35;;;;;;;32.58;12.82;;;8.50;99.90;;;;;;5045323;28;20045;-68
2022/12/22 05:08:01;;;;;;;31.98;12.65;;;8.50;99.90;;;;;;5033554;28;20053;-68
2022/12/22 05:10:27;;;;;;;;;;;8.50;99.90;;;;;;5037654;28;20046;-68
2022/12/22 05:12:56;;;;;;;33.13;12.25;;;8.50;99.90;;;;;;5030206;28;19921;-68
2022/12/22 05:15:24;;;;;;;31.85;12.35;;;8.50;99.90;;;;;;5045016;28;20577;-68
2022/12/22 05:17:49;;;;;;;39.15;14.02;;;8.50;99.90;;;;;;5049337;28;20497;-68
2022/12/22 05:20:15;;;;;;;31.27;12.20;;;8.50;99.90;;;;;;5049066;28;20043;-69
2022/12/22 05:22:41;;;;;;;33.25;12.57;;;8.50;99.90;;;;;;5048970;28;20114;-68
2022/12/22 05:25:07;;;;;;;30.88;11.88;;;8.50;99.90;;;;;;5049342;28;20068;-68
2022/12/22 05:27:33;;;;;;;28.30;11.80;;;8.50;99.90;;;;;;5047613;28;20391;-68
2022/12/22 05:29:59;;;;;;;29.92;12.23;;;8.40;99.90;;;;;;5049718;28;20127;-68
2022/12/22 05:32:24;;;;;;;29.38;13.13;;;8.50;99.90;;;;;;5047533;28;20487;-68
2022/12/22 05:34:50;;;;;;;33.30;12.05;;;8.50;99.90;;;;;;5049279;28;20406;-68
2022/12/22 05:37:16;;;;;;;33.17;12.57;;;8.50;99.90;;;;;;5049045;28;20099;-69
2022/12/22 05:39:42;;;;;;;33.13;12.07;;;8.50;99.90;;;;;;5036241;28;20046;-68
2022/12/22 05:42:08;;;;;;;42.13;12.00;;;8.50;99.90;;;;;;5045653;28;20045;-68
2022/12/22 05:44:33;;;;;;;27.38;11.95;;;8.50;99.90;;;;;;5048937;28;20052;-68
2022/12/22 05:46:59;;;;;;;32.55;12.55;;;8.50;99.90;;;;;;5048106;28;20055;-68
2022/12/22 05:49:24;;;;;;;36.35;14.40;;;8.50;99.90;;;;;;5049426;28;20053;-68
2022/12/22 05:51:52;;;;;;;33.42;12.52;;;8.50;99.90;;;;;;5049571;28;20055;-68
2022/12/22 05:54:18;;;;;;;32.83;12.07;;;8.50;99.90;;;;;;5053598;28;20089;-69
2022/12/22 05:56:44;;;;;;;32.35;11.45;;;8.50;99.90;;;;;;5053235;28;20088;-68
2022/12/22 05:59:10;;;;;;;36.17;12.27;;;8.60;99.90;;;;;;5053498;28;20632;-68
2022/12/22 06:01:36;;;;;;;31.55;11.45;;;8.50;99.90;;;;;;5047617;28;20121;-68
2022/12/22 06:04:02;;;;;;;34.75;13.02;;;8.50;99.90;;;;;;5050478;28;20120;-68
2022/12/22 06:06:28;;;;;;;31.98;13.50;;;8.50;99.90;;;;;;5052160;28;20111;-68
2022/12/22 06:08:54;;;;;;;33.72;13.27;;;8.40;99.90;;;;;;5053514;28;20498;-68
2022/12/22 06:11:20;;;;;;;31.27;11.93;;;8.40;99.90;;;;;;5052897;28;20041;-70
2022/12/22 06:13:45;;;;;;;32.97;11.98;;;8.40;99.90;;;;;;5053408;28;20044;-68
2022/12/22 06:16:11;;;;;;;27.73;11.93;;;8.40;99.90;;;;;;5052792;28;20059;-68
2022/12/22 06:18:37;;;;;;;33.53;13.35;;;8.40;99.90;;;;;;5052646;28;20092;-68
2022/12/22 06:21:03;;;;;;;30.80;11.45;;;8.40;99.90;;;;;;5051264;28;20045;-68
2022/12/22 06:23:29;;;;;;;34.92;12.45;;;8.30;99.90;;;;;;5052451;28;20514;-68
2022/12/22 06:25:59;;;;;;;35.38;11.50;;;8.40;99.90;;;;;;5045654;28;20064;-68
2022/12/22 06:28:25;;;;;;;30.30;11.55;;;8.30;99.90;;;;;;5032742;28;20041;-68
2022/12/22 06:30:52;;;;;;;25.63;10.18;;;8.30;99.90;;;;;;5033036;28;20068;-68
2022/12/22 06:33:18;;;;;;;35.70;12.35;;;8.40;99.90;;;;;;5042347;28;20056;-68
2022/12/22 06:35:43;;;;;;;31.65;11.60;;;8.30;99.90;;;;;;5052519;28;20682;-68
2022/12/22 06:38:09;;;;;;;34.55;11.52;;;8.40;99.90;;;;;;5052604;28;20048;-68
2022/12/22 06:40:35;;;;;;;33.05;12.65;;;8.40;99.90;;;;;;5048699;28;20045;-68
2022/12/22 06:43:09;;;;;;;35.97;11.15;;;8.40;99.90;;;;;;5033036;28;20045;-68
2022/12/22 06:45:37;;;;;;;38.03;12.85;;;8.40;99.90;;;;;;5032194;28;20056;-68
2022/12/22 06:48:03;;;;;;;39.45;12.27;;;8.50;99.90;;;;;;5032325;28;20053;-68
2022/12/22 06:50:29;;;;;;;31.90;12.32;;;8.50;99.90;;;;;;5051818;28;20536;-69
2022/12/22 06:52:55;;;;;;;42.25;12.30;;;8.50;99.90;;;;;;5052181;28;20064;-68
2022/12/22 06:55:21;;;;;;;34.13;12.23;;;8.50;99.90;;;;;;5035207;28;20053;-68
2022/12/22 06:57:47;;;;;;;43.78;12.95;;;8.50;99.90;;;;;;5044891;28;20049;-68
2022/12/22 07:00:13;;;;;;;36.55;12.32;;;8.50;99.90;;;;;;5032279;28;20042;-68
2022/12/22 07:02:39;;;;;;;37.45;12.98;;;8.50;99.90;;;;;;5031459;28;20088;-68
2022/12/22 07:05:05;;;;;;;37.42;12.00;;;8.50;99.90;;;;;;5033442;28;20077;-68
2022/12/22 07:07:31;;;;;;;35.35;11.27;;;8.50;99.90;;;;;;5051316;28;20055;-68
2022/12/22 07:09:56;;;;;;;43.60;13.50;;;8.50;99.90;;;;;;5057045;28;20677;-68
2022/12/22 07:12:23;;;;;;;35.00;11.88;;;8.50;99.90;;;;;;5052043;28;20055;-68
2022/12/22 07:14:49;;;;;;;39.88;12.68;;;8.50;99.90;;;;;;5051500;28;20080;-68
2022/12/22 07:17:14;;;;;;;36.30;11.90;;;8.50;99.90;;;;;;5051867;28;20045;-68
2022/12/22 07:19:40;;;;;;;35.13;11.00;;;8.50;99.90;;;;;;5051664;28;20045;-68
2022/12/22 07:22:06;;;;;;;34.60;10.77;;;8.50;99.90;;;;;;5049743;28;20095;-69
2022/12/22 07:24:32;;;;;;;34.50;10.82;;;8.40;99.90;;;;;;5034215;28;20058;-68
2022/12/22 07:26:58;;;;;;;33.67;11.23;;;8.40;99.90;;;;;;5046295;28;20045;-68
2022/12/22 07:29:24;;;;;;;37.67;11.32;;;8.40;99.90;;;;;;5051758;28;20048;-68
2022/12/22 07:31:50;;;;;;;35.67;11.88;;;8.40;99.90;;;;;;5050924;28;20056;-68
2022/12/22 07:34:16;;;;;;;37.30;11.48;;;8.30;99.90;;;;;;5052037;28;20044;-68
2022/12/22 07:36:41;;;;;;;29.30;9.70;;;8.30;99.90;;;;;;5050804;28;20045;-68
2022/12/22 07:39:07;;;;;;;32.20;10.75;;;8.20;99.90;;;;;;5052021;28;20174;-68
2022/12/22 07:44:17;;;;;;;38.17;11.15;;;8.10;99.90;;;;;;5051123;28;20110;-68
2022/12/22 07:46:43;;;;;;;31.35;10.77;;;8.10;99.90;;;;;;5036324;28;20045;-68
2022/12/22 07:51:56;;;;;;;34.45;10.65;;;8.00;99.90;;;;;;5044516;28;20135;-68
2022/12/22 07:54:22;;;;;;;32.50;11.50;;;7.90;99.90;;;;;;5051501;28;20107;-68
2022/12/22 07:56:48;;;;;;;35.25;11.50;;;7.80;99.90;;;;;;5065978;28;20071;-68
2022/12/22 07:59:14;;;;;;;37.40;11.85;;;7.70;99.90;;;;;;5051213;28;20053;-68
2022/12/22 08:01:41;;;;;;;38.67;12.38;;;7.70;99.90;;;;;;5050208;28;20528;-67
2022/12/22 08:04:08;;;;;;;42.33;11.75;;;7.60;99.90;;;;;;5051516;28;20049;-68
2022/12/22 08:06:34;;;;;;;42.17;11.95;;;7.60;99.90;;;;;;5050222;28;20087;-68
2022/12/22 08:09:01;;;;;;;117.90;14.13;;;7.50;99.90;;;;;;5051275;28;20070;-68
2022/12/22 08:11:27;;;;;;;47.22;11.68;;;7.50;99.90;;;;;;5050748;28;20095;-68
2022/12/22 08:13:52;;;;;;;236.05;19.75;;;7.40;99.90;;;;;;5050367;28;20041;-68
2022/12/22 08:16:20;;;;;;;92.82;13.88;;;7.40;99.90;;;;;;5050661;28;20057;-67
2022/12/22 08:18:46;;;;;;;450.00;32.88;;;7.30;99.90;;;;;;5046640;28;20479;-67
2022/12/22 08:21:11;;;;;;;460.92;28.73;;;7.30;99.90;;;;;;5044497;28;20045;-68
2022/12/22 08:23:37;;;;;;;288.27;25.15;;;7.20;99.90;;;;;;5048148;28;20053;-68
2022/12/22 08:26:18;;;;;;;349.42;22.38;;;7.10;99.90;;;;;;5050587;28;20053;-68
2022/12/22 08:28:54;;;;;;;353.70;22.98;;;6.90;99.90;;;;;;5050696;28;20088;-67
2022/12/22 08:31:21;;;;;;;174.43;16.60;;;6.70;99.90;;;;;;5050483;28;20069;-68
2022/12/22 08:33:47;;;;;;;54.55;10.95;;;6.70;99.90;;;;;;5050498;28;20045;-67
2022/12/22 08:36:13;;;;;;;64.53;11.18;;;6.70;99.90;;;;;;5048103;28;20052;-68
2022/12/22 08:38:40;;;;;;;;;;;6.80;99.90;;;;;;5050414;28;20049;-68
2022/12/22 08:41:08;;;;;;;45.67;12.45;;;6.90;99.90;;;;;;5050090;28;19931;-69
2022/12/22 08:43:33;;;;;;;47.78;12.13;;;7.00;99.90;;;;;;5049510;28;20144;-69
2022/12/22 08:45:59;;;;;;;58.90;13.75;;;7.10;99.90;;;;;;5044694;28;20135;-68
2022/12/22 08:48:25;;;;;;;71.10;14.65;;;7.20;99.90;;;;;;5032997;28;20368;-68
2022/12/22 08:50:50;;;;;;;63.22;13.48;;;7.30;99.90;;;;;;5029698;28;20605;-68
2022/12/22 08:53:16;;;;;;;65.97;14.07;;;7.40;99.90;;;;;;5030612;28;20064;-67
2022/12/22 08:55:53;;;;;;;46.63;12.90;;;7.50;99.90;;;;;;5028307;28;20045;-68
2022/12/22 08:58:20;;;;;;;49.63;13.02;;;7.50;99.90;;;;;;5030721;28;20038;-68
2022/12/22 09:00:46;;;;;;;51.42;14.10;;;7.70;99.90;;;;;;5028239;28;20077;-68
2022/12/22 09:03:12;;;;;;;34.60;11.65;;;7.70;99.90;;;;;;5030707;28;20487;-69
2022/12/22 09:05:38;;;;;;;33.53;10.00;;;7.80;99.90;;;;;;5050144;28;20048;-68
2022/12/22 09:08:04;;;;;;;30.83;10.25;;;7.70;99.90;;;;;;5049306;28;20052;-68
2022/12/22 09:10:30;;;;;;;36.00;9.32;;;7.70;99.90;;;;;;5049112;28;20037;-68
2022/12/22 09:12:57;;;;;;;34.58;9.30;;;7.60;99.90;;;;;;5047482;28;20418;-68
2022/12/22 09:15:23;;;;;;;29.60;9.73;;;7.60;99.90;;;;;;5038886;28;20426;-68
2022/12/22 09:17:48;;;;;;;28.17;9.55;;;7.50;99.90;;;;;;5038474;28;20106;-68
2022/12/22 09:20:14;;;;;;;31.10;9.80;;;7.40;99.90;;;;;;5033236;28;20113;-67
2022/12/22 09:22:40;;;;;;;28.80;9.20;;;7.40;99.90;;;;;;5038090;28;20057;-67
2022/12/22 09:25:07;;;;;;;28.52;9.77;;;7.40;99.90;;;;;;5045900;28;20126;-67
2022/12/22 09:27:32;;;;;;;26.35;10.13;;;7.40;99.90;;;;;;5043591;28;20076;-68
2022/12/22 09:29:58;;;;;;;28.65;9.73;;;7.30;99.90;;;;;;5044703;28;20083;-68
2022/12/22 09:32:24;;;;;;;32.00;8.52;;;7.40;99.90;;;;;;5028015;28;20037;-68
2022/12/22 09:34:49;;;;;;;34.20;9.45;;;7.30;99.90;;;;;;5028344;28;20076;-68
2022/12/22 09:37:15;;;;;;;26.92;8.82;;;7.30;99.90;;;;;;5028369;28;20049;-68
2022/12/22 09:39:41;;;;;;;;;;;7.30;99.90;;;;;;5029265;28;20049;-68
2022/12/22 09:42:18;;;;;;;22.77;7.72;;;7.20;99.90;;;;;;5027751;28;19929;-68
2022/12/22 09:44:46;;;;;;;30.08;9.07;;;7.20;99.90;;;;;;5028246;28;20045;-68
2022/12/22 09:47:25;;;;;;;24.50;7.20;;;7.10;99.90;;;;;;5027360;28;20061;-68
2022/12/22 09:49:52;;;;;;;23.17;7.82;;;7.20;99.90;;;;;;5031213;28;20049;-68
2022/12/22 09:52:35;;;;;;;25.38;8.35;;;7.10;99.90;;;;;;5028315;28;20580;-68
2022/12/22 09:55:03;;;;;;;28.23;8.32;;;7.10;99.90;;;;;;5026911;28;20042;-68
2022/12/22 09:57:31;;;;;;;29.85;8.32;;;7.20;99.90;;;;;;5027128;28;20052;-67
2022/12/22 10:00:27;;;;;;;24.48;7.68;;;7.20;99.90;;;;;;5043783;28;20038;-68
2022/12/22 10:03:24;;;;;;;26.45;8.30;;;7.20;99.90;;;;;;5042674;28;20053;-67
2022/12/22 10:06:04;;;;;;;23.42;7.68;;;7.20;99.90;;;;;;5040439;28;20063;-70
2022/12/22 10:08:34;;;;;;;24.33;7.13;;;7.20;99.90;;;;;;5032460;28;20042;-68
2022/12/22 10:11:00;;;;;;;26.23;8.13;;;7.20;99.90;;;;;;5042154;28;20045;-68
2022/12/22 10:13:25;;;;;;;22.13;6.28;;;7.20;99.90;;;;;;5036952;28;20054;-67
2022/12/22 10:15:52;;;;;;;33.58;6.63;;;7.20;99.90;;;;;;5033016;28;20048;-72
2022/12/22 10:18:18;;;;;;;;;;;7.20;99.90;;;;;;5047448;28;20119;-68
2022/12/22 10:20:46;;;;;;;26.75;6.13;;;7.20;99.90;;;;;;5048599;28;20416;-70
2022/12/22 10:23:22;;;;;;;21.58;6.28;;;7.10;99.90;;;;;;5047767;28;20041;-67
2022/12/22 10:25:57;;;;;;;20.23;6.20;;;7.20;99.90;;;;;;5034243;28;20065;-70
2022/12/22 10:28:32;;;;;;;23.60;7.13;;;7.20;99.90;;;;;;5044478;28;20037;-68
2022/12/22 10:31:13;;;;;;;28.48;7.22;;;7.30;99.90;;;;;;5043269;28;20099;-68
2022/12/22 10:33:40;;;;;;;21.88;6.90;;;7.40;99.90;;;;;;5028526;28;20045;-68
2022/12/22 10:36:06;;;;;;;21.23;6.13;;;7.40;99.90;;;;;;5026627;28;20050;-68
2022/12/22 10:38:38;;;;;;;19.55;6.10;;;7.60;99.90;;;;;;5027700;28;20564;-67
2022/12/22 10:41:17;;;;;;;18.92;5.53;;;7.60;99.90;;;;;;5034852;28;20077;-68
2022/12/22 10:43:53;;;;;;;16.85;5.95;;;7.70;99.90;;;;;;5049726;28;20095;-68
2022/12/22 10:46:32;;;;;;;17.23;5.78;;;7.80;99.90;;;;;;5036636;28;20045;-68
2022/12/22 10:49:23;;;;;;;23.00;6.75;;;7.90;99.90;;;;;;5047967;28;20052;-68
2022/12/22 10:52:11;;;;;;;17.40;5.82;;;7.90;99.90;;;;;;5048196;28;20152;-68
2022/12/22 10:54:37;;;;;;;15.43;5.93;;;7.90;99.90;;;;;;5039179;28;20060;-68
2022/12/22 10:57:12;;;;;;;21.35;6.28;;;7.90;99.90;;;;;;5028957;28;20054;-67
2022/12/22 10:59:59;;;;;;;18.33;5.72;;;7.90;99.90;;;;;;5036862;28;20818;-68
2022/12/22 11:02:26;;;;;;;15.13;5.10;;;8.00;99.90;;;;;;5029317;28;20045;-68
2022/12/22 11:04:53;;;;;;;12.93;4.72;;;8.60;99.90;;;;;;5034648;28;20049;-70
2022/12/22 11:07:20;;;;;;;17.55;4.72;;;9.40;99.90;;;;;;5035720;28;20045;-68
2022/12/22 11:09:45;;;;;;;13.60;4.15;;;10.20;99.90;;;;;;5032127;28;20116;-68
2022/12/22 11:13:02;;;;;;;11.07;4.53;;;10.90;99.90;;;;;;5030415;28;20574;-68
2022/12/22 11:15:53;;;;;;;12.23;4.90;;;11.40;99.90;;;;;;5033367;28;20056;-69
2022/12/22 11:18:49;;;;;;;18.48;4.85;;;11.50;99.90;;;;;;5043642;28;20049;-68
2022/12/22 11:21:22;;;;;;;12.65;4.32;;;10.90;99.90;;;;;;5041632;28;20337;-68
2022/12/22 11:24:20;;;;;;;10.02;4.07;;;10.70;99.90;;;;;;5044557;28;20048;-68
2022/12/22 11:26:46;;;;;;;10.93;3.90;;;10.50;99.90;;;;;;5048566;28;20056;-68
2022/12/22 11:29:21;;;;;;;10.90;3.42;;;10.00;99.90;;;;;;5048451;28;20041;-68
2022/12/22 11:32:14;;;;;;;10.68;3.45;;;9.50;99.90;;;;;;5048386;28;20120;-68
2022/12/22 11:35:03;;;;;;;11.63;3.78;;;9.00;99.90;;;;;;5046158;28;20044;-68
2022/12/22 11:37:59;;;;;;;10.55;3.88;;;8.80;99.90;;;;;;5048696;28;20048;-67
2022/12/22 11:40:33;;;;;;;13.68;5.00;;;8.80;99.90;;;;;;5047895;28;20479;-70
2022/12/22 11:43:40;;;;;;;12.98;4.50;;;8.80;99.90;;;;;;5045007;28;20048;-68
2022/12/22 11:46:30;;;;;;;13.07;4.07;;;8.90;99.90;;;;;;5036138;28;20081;-69
2022/12/22 11:49:14;;;;;;;10.15;3.40;;;9.60;99.90;;;;;;5047449;28;20140;-68
2022/12/22 11:51:49;;;;;;;10.25;3.72;;;10.50;99.90;;;;;;5045968;28;20084;-69
2022/12/22 11:54:27;;;;;;;9.68;3.95;;;11.30;99.90;;;;;;5050191;28;20048;-69
2022/12/22 11:57:18;;;;;;;8.23;3.67;;;12.10;99.90;;;;;;5046268;28;20480;-68
2022/12/22 12:00:08;;;;;;;7.28;3.25;;;12.90;99.90;;;;;;5065099;28;20060;-69
2022/12/22 12:02:55;;;;;;;11.00;3.85;;;13.80;99.90;;;;;;5049471;28;20053;-69
2022/12/22 12:05:21;;;;;;;8.27;3.70;;;14.40;99.90;;;;;;5045473;28;20822;-69
2022/12/22 12:07:53;;;;;;;;;;;14.80;99.90;;;;;;5032742;28;20049;-70
2022/12/22 12:10:43;;;;;;;10.82;3.50;;;15.00;99.90;;;;;;5046161;28;20654;-73
2022/12/22 12:13:33;;;;;;;9.73;3.60;;;15.40;99.90;;;;;;5047810;28;20499;-72
2022/12/22 12:16:43;;;;;;;9.80;3.38;;;15.70;99.90;;;;;;5044368;28;20040;-74
2022/12/22 12:19:51;;;;;;;8.98;3.50;;;16.20;99.90;;;;;;5042995;28;20082;-73
2022/12/22 12:22:30;;;;;;;13.57;4.05;;;16.70;99.90;;;;;;5022236;28;20049;-72
2022/12/22 12:25:10;;;;;;;12.48;3.88;;;17.00;99.90;;;;;;5043321;28;20053;-72
2022/12/22 12:27:58;;;;;;;12.57;3.83;;;17.20;99.90;;;;;;5044863;28;20060;-72
2022/12/22 12:30:24;;;;;;;13.25;3.30;;;17.50;99.90;;;;;;5046560;28;20147;-73
2022/12/22 12:32:49;;;;;;;;;;;17.50;99.90;;;;;;5045091;28;20148;-72
2022/12/22 12:35:24;;;;;;;10.93;3.80;;;17.40;99.90;;;;;;5047121;28;19931;-71
2022/12/22 12:37:55;;;;;;;9.50;3.72;;;17.50;99.90;;;;;;5042828;28;20045;-71
2022/12/22 12:40:49;;;;;;;9.63;3.00;;;17.50;99.90;;;;;;5043347;28;20053;-73
2022/12/22 12:43:16;;;;;;;9.98;3.45;;;17.70;99.90;;;;;;5037583;28;20045;-70
2022/12/22 12:45:47;;;;;;;10.77;3.45;;;17.80;99.90;;;;;;5048719;28;20110;-71
2022/12/22 12:48:18;;;;;;;8.95;3.38;;;17.80;99.90;;;;;;5048919;28;20051;-71
2022/12/22 12:50:45;;;;;;;11.55;3.50;;;17.90;99.90;;;;;;5049693;28;20045;-71
2022/12/22 12:53:11;;;;;;;15.48;3.78;;;17.90;99.90;;;;;;5048984;28;20045;-71
2022/12/22 12:55:39;;;;;;;;;;;18.00;99.90;;;;;;5046798;28;20056;-70
2022/12/22 12:58:09;;;;;;;10.85;3.47;;;18.10;95.40;;;;;;5047012;28;19921;-73
2022/12/22 13:00:35;;;;;;;11.68;4.22;;;18.30;99.90;;;;;;5049999;28;20052;-70
2022/12/22 13:03:03;;;;;;;;;;;18.50;99.90;;;;;;5047196;28;20049;-69
2022/12/22 13:05:48;;;;;;;13.23;4.60;;;18.40;91.90;;;;;;5049121;28;19956;-68
2022/12/22 13:08:16;;;;;;;10.38;3.75;;;18.50;99.90;;;;;;5042331;28;20494;-68
2022/12/22 13:10:44;;;;;;;12.88;4.15;;;18.50;99.90;;;;;;5049218;28;20053;-69
2022/12/22 13:13:33;;;;;;;12.52;4.63;;;18.00;99.90;;;;;;5048600;28;20049;-68
2022/12/22 13:15:59;;;;;;;8.20;3.47;;;17.70;99.90;;;;;;5043030;28;20084;-68
2022/12/22 13:18:24;;;;;;;;;;;17.90;99.90;;;;;;5048795;28;20072;-68
2022/12/22 13:21:00;;;;;;;9.38;3.67;;;18.20;99.90;;;;;;5048599;28;19925;-68
2022/12/22 13:23:43;;;;;;;13.30;3.75;;;18.50;99.90;;;;;;5048940;28;20060;-68
2022/12/22 13:26:19;;;;;;;12.18;3.55;;;18.90;99.90;;;;;;5047318;28;20067;-69
2022/12/22 13:28:57;;;;;;;9.68;3.38;;;19.20;99.90;;;;;;5049242;28;20051;-67
2022/12/22 13:31:45;;;;;;;13.07;3.75;;;19.40;99.90;;;;;;5048310;28;20071;-68
2022/12/22 13:34:33;;;;;;;9.57;3.67;;;19.60;99.90;;;;;;5029104;28;20057;-68
2022/12/22 13:37:16;;;;;;;10.95;3.75;;;19.60;99.90;;;;;;5045392;28;20098;-68
2022/12/22 13:40:00;;;;;;;11.73;4.25;;;19.40;99.90;;;;;;5049312;28;20098;-68
2022/12/22 13:42:27;;;;;;;11.43;3.50;;;19.10;99.90;;;;;;5048414;28;20049;-68
2022/12/22 13:44:53;;;;;;;9.00;2.85;;;19.00;99.90;;;;;;5042934;28;20049;-69
2022/12/22 13:47:19;;;;;;;8.10;3.00;;;18.80;99.90;;;;;;5028442;28;20049;-68
2022/12/22 13:49:44;;;;;;;;;;;18.60;99.90;;;;;;5038073;28;20059;-68
2022/12/22 13:52:16;;;;;;;7.60;3.03;;;18.40;87.30;;;;;;5028686;28;19925;-70
2022/12/22 13:54:44;;;;;;;7.25;2.75;;;17.80;99.90;;;;;;5042650;28;20113;-68
2022/12/22 13:57:19;;;;;;;9.23;2.55;;;17.50;99.90;;;;;;5048445;28;20091;-70
2022/12/22 13:59:48;;;;;;;8.45;2.63;;;17.30;99.90;;;;;;5030958;28;20079;-68
2022/12/22 14:02:18;;;;;;;15.18;3.15;;;17.10;99.90;;;;;;5028142;28;20057;-68
2022/12/22 14:05:03;;;;;;;6.95;2.83;;;17.20;99.90;;;;;;5029294;28;20099;-68
2022/12/22 14:07:29;;;;;;;10.57;2.70;;;17.30;99.90;;;;;;5028212;28;20253;-67
2022/12/22 14:09:55;;;;;;;;;;;17.40;99.90;;;;;;5036306;28;20566;-68
2022/12/22 14:12:24;;;;;;;11.50;3.05;;;17.10;95.50;;;;;;5047489;28;19925;-67
2022/12/22 14:14:52;;;;;;;8.95;2.80;;;16.60;99.90;;;;;;5044705;28;20583;-68
2022/12/22 14:17:25;;;;;;;10.15;3.20;;;15.90;99.90;;;;;;5042330;28;20053;-68
2022/12/22 14:19:54;;;;;;;9.15;2.78;;;15.00;99.90;;;;;;5050810;28;20041;-68
2022/12/22 14:22:27;;;;;;;10.63;2.92;;;14.20;99.90;;;;;;5050987;28;20560;-68
2022/12/22 14:24:58;;;;;;;7.30;2.97;;;13.50;99.90;;;;;;5035610;28;20096;-69
2022/12/22 14:27:51;;;;;;;8.82;3.75;;;13.10;99.90;;;;;;5033601;28;20064;-69
2022/12/22 14:30:20;;;;;;;10.07;2.88;;;13.30;99.90;;;;;;5029434;28;20793;-68
2022/12/22 14:32:48;;;;;;;8.15;2.97;;;13.70;99.90;;;;;;5030064;28;20048;-67
2022/12/22 14:35:20;;;;;;;9.73;2.97;;;14.00;99.90;;;;;;5035568;28;20052;-70
2022/12/22 14:37:47;;;;;;;7.95;2.95;;;14.20;99.90;;;;;;5042887;28;20044;-68
2022/12/22 14:40:40;;;;;;;12.00;3.85;;;14.20;99.90;;;;;;5034589;28;20097;-68
2022/12/22 14:43:30;;;;;;;11.93;3.13;;;14.10;99.90;;;;;;5031580;28;20087;-67
2022/12/22 14:46:05;;;;;;;10.75;3.72;;;13.60;99.90;;;;;;5033630;28;20057;-68
2022/12/22 14:48:45;;;;;;;9.18;3.10;;;13.00;99.90;;;;;;5035040;28;20048;-67
2022/12/22 14:51:17;;;;;;;9.75;3.42;;;12.30;99.90;;;;;;5037508;28;20076;-68
2022/12/22 14:53:47;;;;;;;12.05;3.13;;;11.80;99.90;;;;;;5038159;28;20053;-68
2022/12/22 14:56:14;;;;;;;7.57;3.35;;;11.40;99.90;;;;;;5036212;28;20053;-69
2022/12/22 14:58:42;;;;;;;8.48;2.70;;;11.00;99.90;;;;;;5032742;28;20041;-69
2022/12/22 15:01:11;;;;;;;13.75;3.22;;;10.70;99.90;;;;;;5029763;28;20060;-68
2022/12/22 15:03:39;;;;;;;12.30;3.40;;;10.50;99.90;;;;;;5030442;28;20102;-69
2022/12/22 15:06:23;;;;;;;7.97;2.75;;;10.20;99.90;;;;;;5029454;28;20084;-67
2022/12/22 15:08:53;;;;;;;8.68;2.83;;;10.10;99.90;;;;;;5030167;28;20044;-68
2022/12/22 15:11:21;;;;;;;6.22;2.50;;;9.90;99.90;;;;;;5033038;28;20040;-69
2022/12/22 15:13:49;;;;;;;11.95;3.50;;;9.70;99.90;;;;;;5030045;28;20053;-68
2022/12/22 15:16:17;;;;;;;12.32;3.30;;;9.50;99.90;;;;;;5040782;28;20049;-68
2022/12/22 15:18:43;;;;;;;10.90;3.40;;;9.40;99.90;;;;;;5042124;28;20061;-68
2022/12/22 15:21:13;;;;;;;;;;;9.20;99.90;;;;;;5031364;28;20041;-67
2022/12/22 15:23:38;;;;;;;9.93;3.15;;;9.00;99.90;;;;;;5029441;28;19926;-68
2022/12/22 15:26:05;;;;;;;11.65;3.40;;;8.80;99.90;;;;;;5028336;28;20199;-67
2022/12/22 15:28:32;;;;;;;10.02;3.50;;;8.70;99.90;;;;;;5029387;28;20755;-67
2022/12/22 15:30:58;;;;;;;12.55;3.85;;;8.60;99.90;;;;;;5029080;28;20049;-67
2022/12/22 15:33:24;;;;;;;8.80;4.03;;;8.50;99.90;;;;;;5028381;28;20048;-67
2022/12/22 15:35:50;;;;;;;9.00;4.00;;;8.50;99.90;;;;;;5029020;28;20038;-67
2022/12/22 15:38:19;;;;;;;13.52;5.60;;;8.50;99.90;;;;;;5030680;28;20520;-67
2022/12/22 15:40:44;;;;;;;10.50;4.55;;;8.50;99.90;;;;;;5031996;28;20041;-67
2022/12/22 15:43:11;;;;;;;10.70;4.22;;;8.60;99.90;;;;;;5029517;28;20094;-67
2022/12/22 15:45:38;;;;;;;14.05;4.78;;;8.70;99.90;;;;;;5035023;28;20167;-67
2022/12/22 15:48:08;;;;;;;12.00;5.00;;;8.70;99.90;;;;;;5038479;28;20053;-67
2022/12/22 15:50:38;;;;;;;11.13;5.07;;;8.70;99.90;;;;;;5030798;28;20430;-68
2022/12/22 15:53:05;;;;;;;11.20;4.68;;;8.70;99.90;;;;;;5057183;28;20081;-67
2022/12/22 15:55:32;;;;;;;12.48;5.88;;;8.70;99.90;;;;;;5029450;28;20053;-67
2022/12/22 15:57:58;;;;;;;13.25;4.82;;;8.70;99.90;;;;;;5029886;28;20118;-67
2022/12/22 16:00:24;;;;;;;14.20;4.53;;;8.70;99.90;;;;;;5028177;28;20084;-69
2022/12/22 16:02:50;;;;;;;;;;;8.70;99.90;;;;;;5030594;28;20461;-67
2022/12/22 16:05:16;;;;;;;11.52;4.95;;;8.70;99.90;;;;;;5028652;28;19925;-67
2022/12/22 16:07:42;;;;;;;;;;;8.60;99.90;;;;;;5029874;28;20549;-67
2022/12/22 16:10:29;;;;;;;13.32;5.35;;;8.50;99.90;;;;;;5028987;28;19921;-67
2022/12/22 16:13:00;;;;;;;15.50;5.20;;;8.50;99.90;;;;;;5042353;28;20080;-67
2022/12/22 16:15:32;;;;;;;13.85;5.40;;;8.50;99.90;;;;;;5040991;28;20091;-67
2022/12/22 16:18:02;;;;;;;20.52;5.43;;;8.50;99.90;;;;;;5042472;28;20048;-68
2022/12/22 16:20:34;;;;;;;19.17;5.95;;;8.40;99.90;;;;;;5032546;28;20041;-67
2022/12/22 16:23:01;;;;;;;16.52;6.03;;;8.40;99.90;;;;;;5047101;28;20153;-66
2022/12/22 16:25:37;;;;;;;19.05;6.05;;;8.40;99.90;;;;;;5046780;28;20052;-67
2022/12/22 16:28:04;;;;;;;16.35;7.00;;;8.50;99.90;;;;;;5048164;28;20049;-67
2022/12/22 16:30:32;;;;;;;20.80;8.15;;;8.50;99.90;;;;;;5047168;28;20417;-67
2022/12/22 16:32:58;;;;;;;17.95;6.72;;;8.50;99.90;;;;;;5034902;28;20133;-67
2022/12/22 16:35:26;;;;;;;17.90;7.43;;;8.50;99.90;;;;;;5030935;28;20132;-67
2022/12/22 16:37:55;;;;;;;23.60;6.75;;;8.50;99.90;;;;;;5029408;28;20052;-67
2022/12/22 16:40:21;;;;;;;22.27;6.95;;;8.40;99.90;;;;;;5045592;28;20076;-67
2022/12/22 16:43:16;;;;;;;17.20;7.00;;;8.40;99.90;;;;;;5048539;28;20079;-67